sensor_id;sensor_type;location;lat;lon;timestamp;pressure;altitude;pressure_sealevel;temperature
15144;BMP180;7672;50.834;6.286;2023-02-08T00:01:16;101857.75;;;3.63
15144;BMP180;7672;50.834;6.286;2023-02-08T00:03:43;101854.50;;;3.64
15144;BMP180;7672;50.834;6.286;2023-02-08T00:06:11;101851.00;;;3.62
15144;BMP180;7672;50.834;6.286;2023-02-08T00:08:39;101846.88;;;3.63
15144;BMP180;7672;50.834;6.286;2023-02-08T00:11:06;101845.25;;;3.63
15144;BMP180;7672;50.834;6.286;2023-02-08T00:13:38;101843.50;;;3.62
15144;BMP180;7672;50.834;6.286;2023-02-08T00:16:07;101839.09;;;3.58
15144;BMP180;7672;50.834;6.286;2023-02-08T00:18:34;101839.19;;;3.60
15144;BMP180;7672;50.834;6.286;2023-02-08T00:21:11;101838.31;;;3.59
15144;BMP180;7672;50.834;6.286;2023-02-08T00:23:38;101836.00;;;3.62
15144;BMP180;7672;50.834;6.286;2023-02-08T00:26:05;101841.00;;;3.62
15144;BMP180;7672;50.834;6.286;2023-02-08T00:28:32;101834.34;;;3.63
15144;BMP180;7672;50.834;6.286;2023-02-08T00:30:59;101846.88;;;3.63
15144;BMP180;7672;50.834;6.286;2023-02-08T00:33:26;101837.75;;;3.63
15144;BMP180;7672;50.834;6.286;2023-02-08T00:36:01;101844.38;;;3.63
15144;BMP180;7672;50.834;6.286;2023-02-08T00:38:28;101843.50;;;3.62
15144;BMP180;7672;50.834;6.286;2023-02-08T00:40:55;101838.31;;;3.59
15144;BMP180;7672;50.834;6.286;2023-02-08T00:43:22;101840.72;;;3.58
15144;BMP180;7672;50.834;6.286;2023-02-08T00:45:57;101841.41;;;3.55
15144;BMP180;7672;50.834;6.286;2023-02-08T00:48:25;101837.16;;;3.54
15144;BMP180;7672;50.834;6.286;2023-02-08T00:51:09;101841.25;;;3.54
15144;BMP180;7672;50.834;6.286;2023-02-08T00:53:43;101842.81;;;3.52
15144;BMP180;7672;50.834;6.286;2023-02-08T00:56:13;101838.47;;;3.49
15144;BMP180;7672;50.834;6.286;2023-02-08T00:58:41;101835.09;;;3.49
15144;BMP180;7672;50.834;6.286;2023-02-08T01:01:09;101823.47;;;3.49
15144;BMP180;7672;50.834;6.286;2023-02-08T01:03:39;101837.72;;;3.50
15144;BMP180;7672;50.834;6.286;2023-02-08T01:06:11;101831.94;;;3.51
15144;BMP180;7672;50.834;6.286;2023-02-08T01:08:39;101826.84;;;3.50
15144;BMP180;7672;50.834;6.286;2023-02-08T01:11:15;101829.34;;;3.50
15144;BMP180;7672;50.834;6.286;2023-02-08T01:13:44;101836.75;;;3.48
15144;BMP180;7672;50.834;6.286;2023-02-08T01:16:17;101840.66;;;3.45
15144;BMP180;7672;50.834;6.286;2023-02-08T01:18:48;101839.31;;;3.37
15144;BMP180;7672;50.834;6.286;2023-02-08T01:21:20;101839.03;;;3.32
15144;BMP180;7672;50.834;6.286;2023-02-08T01:23:48;101836.13;;;3.26
15144;BMP180;7672;50.834;6.286;2023-02-08T01:26:16;101836.78;;;3.24
15144;BMP180;7672;50.834;6.286;2023-02-08T01:28:43;101828.97;;;3.19
15144;BMP180;7672;50.834;6.286;2023-02-08T01:31:19;101828.97;;;3.19
15144;BMP180;7672;50.834;6.286;2023-02-08T01:33:47;101832.13;;;3.17
15144;BMP180;7672;50.834;6.286;2023-02-08T01:36:14;101824.53;;;3.15
15144;BMP180;7672;50.834;6.286;2023-02-08T01:38:44;101824.53;;;3.15
15144;BMP180;7672;50.834;6.286;2023-02-08T01:41:26;101827.78;;;3.14
15144;BMP180;7672;50.834;6.286;2023-02-08T01:46:46;101816.53;;;3.08
15144;BMP180;7672;50.834;6.286;2023-02-08T01:49:26;101818.94;;;3.06
15144;BMP180;7672;50.834;6.286;2023-02-08T01:52:16;101817.19;;;3.05
15144;BMP180;7672;50.834;6.286;2023-02-08T01:55:03;101813.75;;;3.04
15144;BMP180;7672;50.834;6.286;2023-02-08T01:57:31;101813.75;;;3.04
15144;BMP180;7672;50.834;6.286;2023-02-08T02:00:14;101815.34;;;3.03
15144;BMP180;7672;50.834;6.286;2023-02-08T02:02:44;101815.34;;;3.03
15144;BMP180;7672;50.834;6.286;2023-02-08T02:05:12;101808.50;;;3.01
15144;BMP180;7672;50.834;6.286;2023-02-08T02:07:40;101811.81;;;3.00
15144;BMP180;7672;50.834;6.286;2023-02-08T02:10:14;101813.31;;;2.98
15144;BMP180;7672;50.834;6.286;2023-02-08T02:12:42;101810.63;;;2.95
15144;BMP180;7672;50.834;6.286;2023-02-08T02:15:10;101819.63;;;2.93
15144;BMP180;7672;50.834;6.286;2023-02-08T02:17:38;101816.19;;;2.91
15144;BMP180;7672;50.834;6.286;2023-02-08T02:20:38;101813.69;;;2.91
15144;BMP180;7672;50.834;6.286;2023-02-08T02:26:09;101822.59;;;2.87
15144;BMP180;7672;50.834;6.286;2023-02-08T02:29:26;101820.19;;;2.89
15144;BMP180;7672;50.834;6.286;2023-02-08T02:32:18;101818.38;;;2.86
15144;BMP180;7672;50.834;6.286;2023-02-08T02:35:04;101813.38;;;2.86
15144;BMP180;7672;50.834;6.286;2023-02-08T02:43:51;101804.88;;;2.84
15144;BMP180;7672;50.834;6.286;2023-02-08T02:46:27;101808.19;;;2.83
15144;BMP180;7672;50.834;6.286;2023-02-08T02:52:15;101807.84;;;2.79
15144;BMP180;7672;50.834;6.286;2023-02-08T02:54:52;101799.28;;;2.75
15144;BMP180;7672;50.834;6.286;2023-02-08T02:57:27;101804.06;;;2.72
15144;BMP180;7672;50.834;6.286;2023-02-08T02:59:57;101804.06;;;2.72
15144;BMP180;7672;50.834;6.286;2023-02-08T03:02:26;101803.22;;;2.72
15144;BMP180;7672;50.834;6.286;2023-02-08T03:04:55;101795.59;;;2.70
15144;BMP180;7672;50.834;6.286;2023-02-08T03:14:08;101794.97;;;2.61
15144;BMP180;7672;50.834;6.286;2023-02-08T03:20:11;101801.00;;;2.52
15144;BMP180;7672;50.834;6.286;2023-02-08T03:22:55;101803.28;;;2.49
15144;BMP180;7672;50.834;6.286;2023-02-08T03:25:39;101802.31;;;2.47
15144;BMP180;7672;50.834;6.286;2023-02-08T03:28:49;101800.47;;;2.44
15144;BMP180;7672;50.834;6.286;2023-02-08T03:31:42;101801.13;;;2.42
15144;BMP180;7672;50.834;6.286;2023-02-08T03:34:27;101801.88;;;2.41
15144;BMP180;7672;50.834;6.286;2023-02-08T03:37:08;101794.50;;;2.42
15144;BMP180;7672;50.834;6.286;2023-02-08T03:39:38;101796.88;;;2.41
15144;BMP180;7672;50.834;6.286;2023-02-08T03:42:16;101795.28;;;2.42
15144;BMP180;7672;50.834;6.286;2023-02-08T03:44:58;101796.13;;;2.42
15144;BMP180;7672;50.834;6.286;2023-02-08T03:47:32;101800.28;;;2.42
15144;BMP180;7672;50.834;6.286;2023-02-08T03:50:06;101796.03;;;2.41
15144;BMP180;7672;50.834;6.286;2023-02-08T03:52:35;101798.53;;;2.41
15144;BMP180;7672;50.834;6.286;2023-02-08T03:55:11;101800.03;;;2.39
15144;BMP180;7672;50.834;6.286;2023-02-08T03:57:55;101795.69;;;2.36
15144;BMP180;7672;50.834;6.286;2023-02-08T04:00:24;101793.00;;;2.33
15144;BMP180;7672;50.834;6.286;2023-02-08T04:03:00;101793.75;;;2.32
15144;BMP180;7672;50.834;6.286;2023-02-08T04:05:28;101797.91;;;2.32
15144;BMP180;7672;50.834;6.286;2023-02-08T04:07:55;101791.25;;;2.32
15144;BMP180;7672;50.834;6.286;2023-02-08T04:10:22;101790.41;;;2.32
15144;BMP180;7672;50.834;6.286;2023-02-08T04:12:49;101800.50;;;2.33
15144;BMP180;7672;50.834;6.286;2023-02-08T04:15:16;101798.00;;;2.33
15144;BMP180;7672;50.834;6.286;2023-02-08T04:17:43;101797.16;;;2.33
15144;BMP180;7672;50.834;6.286;2023-02-08T04:20:10;101794.50;;;2.31
15144;BMP180;7672;50.834;6.286;2023-02-08T04:22:38;101792.69;;;2.29
15144;BMP180;7672;50.834;6.286;2023-02-08T04:25:05;101786.81;;;2.28
15144;BMP180;7672;50.834;6.286;2023-02-08T04:27:31;101790.97;;;2.28
15144;BMP180;7672;50.834;6.286;2023-02-08T04:29:58;101786.81;;;2.28
15144;BMP180;7672;50.834;6.286;2023-02-08T04:32:25;101795.84;;;2.26
15144;BMP180;7672;50.834;6.286;2023-02-08T04:34:52;101800.94;;;2.28
15144;BMP180;7672;50.834;6.286;2023-02-08T04:37:19;101800.28;;;2.30
15144;BMP180;7672;50.834;6.286;2023-02-08T04:39:45;101800.50;;;2.33
15144;BMP180;7672;50.834;6.286;2023-02-08T04:42:12;101803.09;;;2.35
15144;BMP180;7672;50.834;6.286;2023-02-08T04:44:39;101800.50;;;2.33
15144;BMP180;7672;50.834;6.286;2023-02-08T04:47:06;101803.31;;;2.38
15144;BMP180;7672;50.834;6.286;2023-02-08T04:49:33;101805.91;;;2.39
15144;BMP180;7672;50.834;6.286;2023-02-08T04:52:00;101805.25;;;2.42
15144;BMP180;7672;50.834;6.286;2023-02-08T04:54:27;101803.53;;;2.41
15144;BMP180;7672;50.834;6.286;2023-02-08T04:56:54;101797.69;;;2.40
15144;BMP180;7672;50.834;6.286;2023-02-08T04:59:21;101801.88;;;2.41
15144;BMP180;7672;50.834;6.286;2023-02-08T05:01:48;101806.88;;;2.41
15144;BMP180;7672;50.834;6.286;2023-02-08T05:04:14;101806.00;;;2.41
15144;BMP180;7672;50.834;6.286;2023-02-08T05:06:41;101803.53;;;2.41
15144;BMP180;7672;50.834;6.286;2023-02-08T05:09:08;101804.19;;;2.38
15144;BMP180;7672;50.834;6.286;2023-02-08T05:11:36;101800.03;;;2.39
15144;BMP180;7672;50.834;6.286;2023-02-08T05:14:03;101801.59;;;2.37
15144;BMP180;7672;50.834;6.286;2023-02-08T05:16:30;101797.44;;;2.37
15144;BMP180;7672;50.834;6.286;2023-02-08T05:18:57;101796.34;;;2.34
15144;BMP180;7672;50.834;6.286;2023-02-08T05:21:24;101801.47;;;2.35
15144;BMP180;7672;50.834;6.286;2023-02-08T05:23:51;101803.00;;;2.33
15144;BMP180;7672;50.834;6.286;2023-02-08T05:26:18;101796.16;;;2.31
15144;BMP180;7672;50.834;6.286;2023-02-08T05:28:45;101792.69;;;2.29
15144;BMP180;7672;50.834;6.286;2023-02-08T05:31:17;101790.88;;;2.26
15144;BMP180;7672;50.834;6.286;2023-02-08T05:33:44;101784.88;;;2.24
15144;BMP180;7672;50.834;6.286;2023-02-08T05:36:11;101795.63;;;2.23
15144;BMP180;7672;50.834;6.286;2023-02-08T05:38:38;101800.41;;;2.20
15144;BMP180;7672;50.834;6.286;2023-02-08T05:41:05;101799.44;;;2.18
15144;BMP180;7672;50.834;6.286;2023-02-08T05:43:32;101794.44;;;2.18
15144;BMP180;7672;50.834;6.286;2023-02-08T05:45:58;101803.47;;;2.16
15144;BMP180;7672;50.834;6.286;2023-02-08T05:48:25;101803.47;;;2.16
15144;BMP180;7672;50.834;6.286;2023-02-08T05:50:52;101805.06;;;2.16
15144;BMP180;7672;50.834;6.286;2023-02-08T05:53:19;101803.31;;;2.15
15144;BMP180;7672;50.834;6.286;2023-02-08T05:55:46;101800.72;;;2.13
15144;BMP180;7672;50.834;6.286;2023-02-08T05:58:15;101799.81;;;2.47
15144;BMP180;7672;50.834;6.286;2023-02-08T06:00:42;101809.09;;;2.61
15144;BMP180;7672;50.834;6.286;2023-02-08T06:03:10;101802.63;;;2.51
15144;BMP180;7672;50.834;6.286;2023-02-08T06:05:38;101806.13;;;2.42
15144;BMP180;7672;50.834;6.286;2023-02-08T06:08:06;101804.94;;;2.37
15144;BMP180;7672;50.834;6.286;2023-02-08T06:10:33;101807.97;;;2.33
15144;BMP180;7672;50.834;6.286;2023-02-08T06:13:01;101804.41;;;2.30
15144;BMP180;7672;50.834;6.286;2023-02-08T06:15:27;101809.19;;;2.27
15144;BMP180;7672;50.834;6.286;2023-02-08T06:17:54;101804.09;;;2.25
15144;BMP180;7672;50.834;6.286;2023-02-08T06:20:21;101804.84;;;2.24
15144;BMP180;7672;50.834;6.286;2023-02-08T06:22:48;101806.34;;;2.22
15144;BMP180;7672;50.834;6.286;2023-02-08T06:25:15;101807.91;;;2.20
15144;BMP180;7672;50.834;6.286;2023-02-08T06:27:42;101815.28;;;2.19
15144;BMP180;7672;50.834;6.286;2023-02-08T06:30:09;101815.94;;;2.16
15144;BMP180;7672;50.834;6.286;2023-02-08T06:32:37;101815.81;;;2.15
15144;BMP180;7672;50.834;6.286;2023-02-08T06:35:05;101818.19;;;2.13
15144;BMP180;7672;50.834;6.286;2023-02-08T06:37:32;101815.59;;;2.12
15144;BMP180;7672;50.834;6.286;2023-02-08T06:39:59;101814.66;;;2.10
15144;BMP180;7672;50.834;6.286;2023-02-08T06:42:27;101808.66;;;2.08
15144;BMP180;7672;50.834;6.286;2023-02-08T06:44:54;101811.91;;;2.07
15144;BMP180;7672;50.834;6.286;2023-02-08T06:47:25;101809.31;;;2.05
15144;BMP180;7672;50.834;6.286;2023-02-08T06:49:52;101817.56;;;2.04
15144;BMP180;7672;50.834;6.286;2023-02-08T06:52:19;101815.06;;;2.04
15144;BMP180;7672;50.834;6.286;2023-02-08T06:54:47;101814.41;;;2.07
15144;BMP180;7672;50.834;6.286;2023-02-08T06:57:14;101811.91;;;2.07
15144;BMP180;7672;50.834;6.286;2023-02-08T06:59:42;101819.63;;;2.10
15144;BMP180;7672;50.834;6.286;2023-02-08T07:02:18;101817.13;;;2.10
15144;BMP180;7672;50.834;6.286;2023-02-08T07:04:46;101816.34;;;2.11
15144;BMP180;7672;50.834;6.286;2023-02-08T07:07:15;101812.25;;;2.11
15144;BMP180;7672;50.834;6.286;2023-02-08T07:09:42;101808.22;;;2.13
15144;BMP180;7672;50.834;6.286;2023-02-08T07:12:10;101816.88;;;2.18
15144;BMP180;7672;50.834;6.286;2023-02-08T07:14:42;101799.00;;;2.24
15144;BMP180;7672;50.834;6.286;2023-02-08T07:17:11;101796.50;;;2.35
15144;BMP180;7672;50.834;6.286;2023-02-08T07:19:39;101800.00;;;2.50
15144;BMP180;7672;50.834;6.286;2023-02-08T07:22:06;101793.34;;;2.73
15144;BMP180;7672;50.834;6.286;2023-02-08T07:24:38;101789.69;;;3.05
15144;BMP180;7672;50.834;6.286;2023-02-08T07:27:09;101787.50;;;3.47
15144;BMP180;7672;50.834;6.286;2023-02-08T07:29:38;101792.34;;;3.96
15144;BMP180;7672;50.834;6.286;2023-02-08T07:32:06;101780.81;;;4.51
15144;BMP180;7672;50.834;6.286;2023-02-08T07:34:36;101785.38;;;5.12
15144;BMP180;7672;50.834;6.286;2023-02-08T07:37:04;101784.16;;;5.76
15144;BMP180;7672;50.834;6.286;2023-02-08T07:39:31;101782.75;;;6.42
15144;BMP180;7672;50.834;6.286;2023-02-08T07:41:58;101783.19;;;7.13
15144;BMP180;7672;50.834;6.286;2023-02-08T07:44:26;101778.41;;;7.85
15144;BMP180;7672;50.834;6.286;2023-02-08T07:46:53;101781.88;;;8.58
15144;BMP180;7672;50.834;6.286;2023-02-08T07:49:20;101782.66;;;9.32
15144;BMP180;7672;50.834;6.286;2023-02-08T07:51:47;101780.56;;;10.04
15144;BMP180;7672;50.834;6.286;2023-02-08T07:54:15;101776.88;;;10.61
15144;BMP180;7672;50.834;6.286;2023-02-08T07:56:42;101775.22;;;11.08
15144;BMP180;7672;50.834;6.286;2023-02-08T07:59:10;101762.91;;;11.44
15144;BMP180;7672;50.834;6.286;2023-02-08T08:01:37;101764.03;;;11.76
15144;BMP180;7672;50.834;6.286;2023-02-08T08:04:04;101767.63;;;12.09
15144;BMP180;7672;50.834;6.286;2023-02-08T08:06:32;101765.91;;;12.36
15144;BMP180;7672;50.834;6.286;2023-02-08T08:08:59;101764.06;;;12.60
15144;BMP180;7672;50.834;6.286;2023-02-08T08:11:26;101766.28;;;12.79
15144;BMP180;7672;50.834;6.286;2023-02-08T08:13:53;101770.09;;;12.93
15144;BMP180;7672;50.834;6.286;2023-02-08T08:16:21;101762.06;;;13.08
15144;BMP180;7672;50.834;6.286;2023-02-08T08:18:48;101761.66;;;13.24
15144;BMP180;7672;50.834;6.286;2023-02-08T08:21:16;101757.84;;;13.41
15144;BMP180;7672;50.834;6.286;2023-02-08T08:23:43;101756.56;;;13.58
15144;BMP180;7672;50.834;6.286;2023-02-08T08:26:18;101752.06;;;13.82
15144;BMP180;7672;50.834;6.286;2023-02-08T08:28:47;101766.22;;;14.08
15144;BMP180;7672;50.834;6.286;2023-02-08T08:31:20;101753.91;;;14.24
15144;BMP180;7672;50.834;6.286;2023-02-08T08:33:48;101753.38;;;14.38
15144;BMP180;7672;50.834;6.286;2023-02-08T08:36:15;101760.59;;;14.59
15144;BMP180;7672;50.834;6.286;2023-02-08T08:38:42;101766.22;;;14.87
15144;BMP180;7672;50.834;6.286;2023-02-08T08:41:13;101760.78;;;15.12
15144;BMP180;7672;50.834;6.286;2023-02-08T08:43:40;101752.78;;;15.38
15144;BMP180;7672;50.834;6.286;2023-02-08T08:46:08;101744.72;;;15.63
15144;BMP180;7672;50.834;6.286;2023-02-08T08:48:36;101751.88;;;15.88
15144;BMP180;7672;50.834;6.286;2023-02-08T08:51:05;101752.25;;;16.13
15144;BMP180;7672;50.834;6.286;2023-02-08T08:53:33;101745.00;;;16.40
15144;BMP180;7672;50.834;6.286;2023-02-08T08:56:00;101748.63;;;16.58
15144;BMP180;7672;50.834;6.286;2023-02-08T08:58:27;101741.19;;;16.77
15144;BMP180;7672;50.834;6.286;2023-02-08T09:00:57;101743.09;;;16.96
15144;BMP180;7672;50.834;6.286;2023-02-08T09:03:27;101736.41;;;17.07
15144;BMP180;7672;50.834;6.286;2023-02-08T09:05:55;101739.88;;;17.12
15144;BMP180;7672;50.834;6.286;2023-02-08T09:08:22;101733.06;;;17.14
15144;BMP180;7672;50.834;6.286;2023-02-08T09:10:49;101732.13;;;17.06
15144;BMP180;7672;50.834;6.286;2023-02-08T09:13:16;101727.84;;;17.02
15144;BMP180;7672;50.834;6.286;2023-02-08T09:15:47;101726.94;;;16.97
15144;BMP180;7672;50.834;6.286;2023-02-08T09:18:14;101723.50;;;16.94
15144;BMP180;7672;50.834;6.286;2023-02-08T09:20:41;101726.13;;;17.01
15144;BMP180;7672;50.834;6.286;2023-02-08T09:23:09;101730.50;;;17.14
15144;BMP180;7672;50.834;6.286;2023-02-08T09:25:36;101728.84;;;17.21
15144;BMP180;7672;50.834;6.286;2023-02-08T09:28:03;101728.97;;;17.30
15144;BMP180;7672;50.834;6.286;2023-02-08T09:30:31;101724.81;;;17.39
15144;BMP180;7672;50.834;6.286;2023-02-08T09:32:58;101720.66;;;17.50
15144;BMP180;7672;50.834;6.286;2023-02-08T09:35:25;101726.69;;;17.62
15144;BMP180;7672;50.834;6.286;2023-02-08T09:37:54;101730.25;;;17.79
15144;BMP180;7672;50.834;6.286;2023-02-08T09:40:37;101729.41;;;17.86
15144;BMP180;7672;50.834;6.286;2023-02-08T09:46:17;101721.78;;;17.92
15144;BMP180;7672;50.834;6.286;2023-02-08T09:48:46;101718.44;;;18.00
15144;BMP180;7672;50.834;6.286;2023-02-08T09:51:34;101724.44;;;18.13
15144;BMP180;7672;50.834;6.286;2023-02-08T09:54:20;101732.16;;;18.16
15144;BMP180;7672;50.834;6.286;2023-02-08T09:56:49;101730.53;;;18.22
15144;BMP180;7672;50.834;6.286;2023-02-08T09:59:24;101732.25;;;18.28
15144;BMP180;7672;50.834;6.286;2023-02-08T10:02:03;101731.44;;;18.35
15144;BMP180;7672;50.834;6.286;2023-02-08T10:05:01;101732.28;;;18.37
15144;BMP180;7672;50.834;6.286;2023-02-08T10:07:30;101730.59;;;18.45
15144;BMP180;7672;50.834;6.286;2023-02-08T10:10:07;101740.88;;;18.51
15144;BMP180;7672;50.834;6.286;2023-02-08T10:15:36;101722.13;;;18.53
15144;BMP180;7672;50.834;6.286;2023-02-08T10:18:40;101717.00;;;18.50
15144;BMP180;7672;50.834;6.286;2023-02-08T10:27:46;101718.75;;;18.63
15144;BMP180;7672;50.834;6.286;2023-02-08T10:33:19;101718.75;;;18.72
15144;BMP180;7672;50.834;6.286;2023-02-08T10:35:49;101712.78;;;18.74
15144;BMP180;7672;50.834;6.286;2023-02-08T10:40:51;101705.09;;;18.65
15144;BMP180;7672;50.834;6.286;2023-02-08T10:49:37;101717.03;;;18.56
15144;BMP180;7672;50.834;6.286;2023-02-08T10:52:06;101719.56;;;18.53
15144;BMP180;7672;50.834;6.286;2023-02-08T10:54:34;101719.56;;;18.49
15144;BMP180;7672;50.834;6.286;2023-02-08T10:57:15;101717.78;;;18.36
15144;BMP180;7672;50.834;6.286;2023-02-08T11:00:06;101714.34;;;18.29
15144;BMP180;7672;50.834;6.286;2023-02-08T11:02:40;101716.03;;;18.30
15144;BMP180;7672;50.834;6.286;2023-02-08T11:05:54;101703.25;;;18.29
15144;BMP180;7672;50.834;6.286;2023-02-08T11:08:09;101704.00;;;18.16
15144;BMP180;7672;50.834;6.286;2023-02-08T11:10:38;101701.38;;;18.02
15144;BMP180;7672;50.834;6.286;2023-02-08T11:13:17;101698.75;;;17.94
15144;BMP180;7672;50.834;6.286;2023-02-08T11:15:56;101700.44;;;17.84
15144;BMP180;7672;50.834;6.286;2023-02-08T11:18:30;101699.50;;;17.75
15144;BMP180;7672;50.834;6.286;2023-02-08T11:21:05;101694.31;;;17.63
15144;BMP180;7672;50.834;6.286;2023-02-08T11:23:39;101706.16;;;17.52
15144;BMP180;7672;50.834;6.286;2023-02-08T11:29:20;101694.97;;;17.35
15144;BMP180;7672;50.834;6.286;2023-02-08T11:34:36;101694.78;;;17.20
15144;BMP180;7672;50.834;6.286;2023-02-08T11:37:17;101690.34;;;17.01
15144;BMP180;7672;50.834;6.286;2023-02-08T11:42:28;101685.53;;;16.48
15144;BMP180;7672;50.834;6.286;2023-02-08T11:44:57;101685.22;;;16.24
15144;BMP180;7672;50.834;6.286;2023-02-08T11:47:29;101687.50;;;16.02
15144;BMP180;7672;50.834;6.286;2023-02-08T11:50:03;101676.06;;;15.76
15144;BMP180;7672;50.834;6.286;2023-02-08T11:52:36;101677.44;;;15.55
15144;BMP180;7672;50.834;6.286;2023-02-08T11:55:23;101679.59;;;15.30
15144;BMP180;7672;50.834;6.286;2023-02-08T11:58:16;101668.09;;;15.04
15144;BMP180;7672;50.834;6.286;2023-02-08T12:01:03;101672.72;;;14.77
15144;BMP180;7672;50.834;6.286;2023-02-08T12:03:39;101672.25;;;14.53
15144;BMP180;7672;50.834;6.286;2023-02-08T12:16:15;101646.63;;;13.66
15144;BMP180;7672;50.834;6.286;2023-02-08T12:18:53;101650.41;;;13.47
15144;BMP180;7672;50.834;6.286;2023-02-08T12:21:42;101641.53;;;13.28
15144;BMP180;7672;50.834;6.286;2023-02-08T12:30:38;101625.28;;;12.57
15144;BMP180;7672;50.834;6.286;2023-02-08T12:39:38;101625.09;;;11.91
15144;BMP180;7672;50.834;6.286;2023-02-08T12:53:55;101608.13;;;11.33
15144;BMP180;7672;50.834;6.286;2023-02-08T12:56:34;101612.06;;;11.25
15144;BMP180;7672;50.834;6.286;2023-02-08T12:59:06;101606.00;;;11.20
15144;BMP180;7672;50.834;6.286;2023-02-08T13:01:47;101610.94;;;11.16
15144;BMP180;7672;50.834;6.286;2023-02-08T13:04:37;101604.00;;;11.10
15144;BMP180;7672;50.834;6.286;2023-02-08T13:07:18;101593.75;;;11.06
15144;BMP180;7672;50.834;6.286;2023-02-08T13:10:35;101595.31;;;11.03
15144;BMP180;7672;50.834;6.286;2023-02-08T13:13:19;101591.72;;;10.96
15144;BMP180;7672;50.834;6.286;2023-02-08T13:15:59;101593.28;;;10.93
15144;BMP180;7672;50.834;6.286;2023-02-08T13:18:42;101594.03;;;10.90
15144;BMP180;7672;50.834;6.286;2023-02-08T13:21:18;101584.69;;;10.88
15144;BMP180;7672;50.834;6.286;2023-02-08T13:23:48;101590.63;;;10.88
15144;BMP180;7672;50.834;6.286;2023-02-08T13:26:29;101582.06;;;10.85
15144;BMP180;7672;50.834;6.286;2023-02-08T13:28:59;101577.72;;;10.81
15144;BMP180;7672;50.834;6.286;2023-02-08T13:31:34;101571.63;;;10.74
15144;BMP180;7672;50.834;6.286;2023-02-08T13:34:36;101575.63;;;10.68
15144;BMP180;7672;50.834;6.286;2023-02-08T13:37:26;101570.31;;;10.60
15144;BMP180;7672;50.834;6.286;2023-02-08T13:40:22;101567.56;;;10.54
15144;BMP180;7672;50.834;6.286;2023-02-08T13:43:24;101563.88;;;10.45
15144;BMP180;7672;50.834;6.286;2023-02-08T13:46:04;101548.31;;;10.35
15144;BMP180;7672;50.834;6.286;2023-02-08T13:49:00;101551.56;;;10.31
15144;BMP180;7672;50.834;6.286;2023-02-08T13:56:49;101548.59;;;10.17
15144;BMP180;7672;50.834;6.286;2023-02-08T13:59:38;101540.78;;;10.11
15144;BMP180;7672;50.834;6.286;2023-02-08T14:04:49;101549.81;;;10.05
15144;BMP180;7672;50.834;6.286;2023-02-08T14:07:43;101544.72;;;10.03
15144;BMP180;7672;50.834;6.286;2023-02-08T14:10:41;101546.31;;;10.01
15144;BMP180;7672;50.834;6.286;2023-02-08T14:13:27;101541.91;;;9.96
15144;BMP180;7672;50.834;6.286;2023-02-08T14:18:56;101521.44;;;9.90
15144;BMP180;7672;50.834;6.286;2023-02-08T14:21:33;101520.47;;;9.86
15144;BMP180;7672;50.834;6.286;2023-02-08T14:24:06;101522.94;;;9.85
15144;BMP180;7672;50.834;6.286;2023-02-08T14:26:36;101527.09;;;9.83
15144;BMP180;7672;50.834;6.286;2023-02-08T14:29:05;101523.59;;;9.80
15144;BMP180;7672;50.834;6.286;2023-02-08T14:31:39;101515.06;;;9.76
15144;BMP180;7672;50.834;6.286;2023-02-08T14:34:29;101522.41;;;9.70
15144;BMP180;7672;50.834;6.286;2023-02-08T14:39:36;101510.31;;;9.62
15144;BMP180;7672;50.834;6.286;2023-02-08T14:42:06;101513.59;;;9.59
15144;BMP180;7672;50.834;6.286;2023-02-08T14:50:15;101498.63;;;9.42
15144;BMP180;7672;50.834;6.286;2023-02-08T14:52:54;101501.91;;;9.39
15144;BMP180;7672;50.834;6.286;2023-02-08T14:55:31;101493.41;;;9.37
15144;BMP180;7672;50.834;6.286;2023-02-08T14:58:00;101497.56;;;9.35
15144;BMP180;7672;50.834;6.286;2023-02-08T15:00:34;101488.25;;;9.34
15144;BMP180;7672;50.834;6.286;2023-02-08T15:03:04;101487.41;;;9.34
15144;BMP180;7672;50.834;6.286;2023-02-08T15:05:47;101491.47;;;9.30
15144;BMP180;7672;50.834;6.286;2023-02-08T15:08:23;101486.25;;;9.26
15144;BMP180;7672;50.834;6.286;2023-02-08T15:10:50;101492.03;;;9.23
15144;BMP180;7672;50.834;6.286;2023-02-08T15:13:23;101486.03;;;9.20
15144;BMP180;7672;50.834;6.286;2023-02-08T15:15:55;101481.59;;;9.15
15144;BMP180;7672;50.834;6.286;2023-02-08T15:18:28;101477.31;;;9.12
15144;BMP180;7672;50.834;6.286;2023-02-08T15:21:16;101477.94;;;9.07
15144;BMP180;7672;50.834;6.286;2023-02-08T15:24:12;101474.53;;;9.05
15144;BMP180;7672;50.834;6.286;2023-02-08T15:26:54;101480.22;;;9.01
15144;BMP180;7672;50.834;6.286;2023-02-08T15:29:25;101478.53;;;9.00
15144;BMP180;7672;50.834;6.286;2023-02-08T15:32:16;101475.03;;;8.96
15144;BMP180;7672;50.834;6.286;2023-02-08T15:34:50;101462.41;;;8.96
15144;BMP180;7672;50.834;6.286;2023-02-08T15:37:19;101464.00;;;8.94
15144;BMP180;7672;50.834;6.286;2023-02-08T15:39:55;101463.22;;;8.95
15144;BMP180;7672;50.834;6.286;2023-02-08T15:42:27;101469.00;;;8.93
15144;BMP180;7672;50.834;6.286;2023-02-08T15:44:55;101470.66;;;8.92
15144;BMP180;7672;50.834;6.286;2023-02-08T15:47:29;101479.78;;;8.89
15144;BMP180;7672;50.834;6.286;2023-02-08T15:49:58;101462.00;;;8.86
15144;BMP180;7672;50.834;6.286;2023-02-08T15:52:30;101468.66;;;8.84
15144;BMP180;7672;50.834;6.286;2023-02-08T15:54:58;101462.63;;;8.80
15144;BMP180;7672;50.834;6.286;2023-02-08T15:59:54;101467.44;;;8.74
15144;BMP180;7672;50.834;6.286;2023-02-08T16:02:32;101461.34;;;8.69
15144;BMP180;7672;50.834;6.286;2023-02-08T16:05:02;101457.75;;;8.63
15144;BMP180;7672;50.834;6.286;2023-02-08T16:07:38;101460.06;;;8.59
15144;BMP180;7672;50.834;6.286;2023-02-08T16:10:08;101447.31;;;8.54
15144;BMP180;7672;50.834;6.286;2023-02-08T16:12:35;101445.44;;;8.50
15144;BMP180;7672;50.834;6.286;2023-02-08T16:15:02;101440.22;;;8.46
15144;BMP180;7672;50.834;6.286;2023-02-08T16:17:44;101434.16;;;8.41
15144;BMP180;7672;50.834;6.286;2023-02-08T16:20:34;101438.09;;;8.34
15144;BMP180;7672;50.834;6.286;2023-02-08T16:23:21;101434.41;;;8.26
15144;BMP180;7672;50.834;6.286;2023-02-08T16:25:49;101437.41;;;8.18
15144;BMP180;7672;50.834;6.286;2023-02-08T16:28:38;101424.53;;;8.12
15144;BMP180;7672;50.834;6.286;2023-02-08T16:31:05;101418.38;;;8.05
15144;BMP180;7672;50.834;6.286;2023-02-08T16:33:33;101418.22;;;8.01
15144;BMP180;7672;50.834;6.286;2023-02-08T16:36:03;101418.00;;;7.97
15144;BMP180;7672;50.834;6.286;2023-02-08T16:38:32;101423.78;;;7.94
15144;BMP180;7672;50.834;6.286;2023-02-08T16:41:03;101422.00;;;7.92
15144;BMP180;7672;50.834;6.286;2023-02-08T16:43:41;101423.44;;;7.87